Time;durP1;ratioP1;P1;durP2;ratioP2;P2;SDS_P1;SDS_P2;PMS_P1;PMS_P2;Temp;Humidity;BMP_temperature;BMP_pressure;BME280_temperature;BME280_humidity;BME280_pressure;Samples;Min_cycle;Max_cycle;Signal;HPM_P1;HPM_P2
2023/08/24 00:00:22;;;;;;;15.20;9.48;;;;;;;30.64;53.68;98239.87;4424178;32;20177;-79
2023/08/24 00:02:49;;;;;;;15.98;9.20;;;;;;;29.78;55.88;98228.09;4423929;32;20121;-79
2023/08/24 00:05:16;;;;;;;13.85;8.98;;;;;;;29.53;56.95;98230.97;4423880;32;20102;-79
2023/08/24 00:07:43;;;;;;;14.10;8.73;;;;;;;30.02;55.68;98226.97;4423723;32;20124;-79
2023/08/24 00:10:10;;;;;;;18.52;8.82;;;;;;;30.16;54.94;98226.97;4423955;32;20116;-79
2023/08/24 00:12:39;;;;;;;20.20;8.85;;;;;;;29.90;55.41;98219.47;4424106;32;20082;-79
2023/08/24 00:15:08;;;;;;;18.83;9.02;;;;;;;30.00;54.92;98221.03;4423576;32;20468;-79
2023/08/24 00:17:36;;;;;;;13.32;8.77;;;;;;;29.69;56.25;98216.72;4410129;32;20566;-79
2023/08/24 00:20:04;;;;;;;14.82;8.60;;;;;;;30.55;53.86;98217.00;4425145;32;20100;-79
2023/08/24 00:22:31;;;;;;;15.48;8.93;;;;;;;30.13;55.02;98211.41;4425795;32;20119;-79
2023/08/24 00:24:58;;;;;;;15.30;8.48;;;;;;;29.39;57.23;98215.81;4426111;32;20488;-79
2023/08/24 00:27:25;;;;;;;12.75;8.05;;;;;;;30.17;55.18;98220.66;4425833;32;20089;-79
2023/08/24 00:29:52;;;;;;;17.15;8.70;;;;;;;30.32;54.60;98214.50;4425783;32;20077;-79
2023/08/24 00:32:19;;;;;;;15.52;8.95;;;;;;;30.26;54.29;98212.56;4425969;32;20149;-79
2023/08/24 00:34:46;;;;;;;16.92;9.18;;;;;;;29.99;54.70;98209.56;4425980;32;20113;-79
2023/08/24 00:37:13;;;;;;;13.38;8.30;;;;;;;29.36;56.99;98209.03;4425523;32;20180;-79
2023/08/24 00:39:41;;;;;;;14.05;8.30;;;;;;;29.67;56.01;98211.56;4425866;32;20131;-79
2023/08/24 00:42:13;;;;;;;14.95;8.25;;;;;;;28.95;58.25;98213.88;4425965;32;20104;-79
2023/08/24 00:44:39;;;;;;;13.43;8.93;;;;;;;29.65;56.22;98208.25;4425768;32;20116;-79
2023/08/24 00:47:08;;;;;;;21.15;9.45;;;;;;;29.23;57.43;98214.12;4425846;32;20114;-79
2023/08/24 00:49:35;;;;;;;16.90;9.15;;;;;;;28.49;60.79;98227.06;4426003;32;20176;-79
2023/08/24 00:52:02;;;;;;;17.05;8.93;;;;;;;29.65;56.42;98220.72;4411822;32;20152;-79
2023/08/24 00:54:29;;;;;;;13.25;8.80;;;;;;;28.80;58.51;98227.03;4412137;32;20106;-79
2023/08/24 00:56:56;;;;;;;13.95;8.80;;;;;;;29.50;56.18;98230.53;4425341;32;20165;-79
2023/08/24 00:59:23;;;;;;;15.02;8.63;;;;;;;28.89;57.17;98227.84;4412133;32;20107;-79
2023/08/24 01:01:51;;;;;;;15.52;9.38;;;;;;;28.41;58.88;98234.28;4412101;32;20095;-79
2023/08/24 01:04:18;;;;;;;18.40;9.05;;;;;;;28.11;60.08;98235.88;4411753;32;20452;-79
2023/08/24 01:06:45;;;;;;;14.70;9.43;;;;;;;27.81;61.50;98242.75;4425636;32;20124;-79
2023/08/24 01:09:12;;;;;;;15.35;9.18;;;;;;;27.70;61.84;98236.00;4425828;32;20133;-79
2023/08/24 01:12:02;;;;;;;15.20;8.80;;;;;;;27.36;63.63;98241.47;4425508;32;20121;-79
2023/08/24 01:14:32;;;;;;;14.55;8.95;;;;;;;28.13;60.27;98232.03;4412005;32;20141;-79
2023/08/24 01:17:01;;;;;;;14.48;8.65;;;;;;;28.18;60.25;98234.19;4425579;32;20132;-79
2023/08/24 01:19:39;;;;;;;13.60;8.52;;;;;;;27.65;62.60;98238.34;4411711;32;20093;-79
2023/08/24 01:22:13;;;;;;;15.30;8.23;;;;;;;28.18;60.91;98239.50;4412024;32;20077;-79
2023/08/24 01:24:46;;;;;;;13.25;8.50;;;;;;;28.03;61.36;98243.84;4425797;32;20145;-79
2023/08/24 01:27:14;;;;;;;15.07;9.23;;;;;;;27.48;63.71;98245.44;4425166;32;20135;-79
2023/08/24 01:29:42;;;;;;;15.57;9.35;;;;;;;27.24;65.05;98238.34;4412033;32;20093;-79
2023/08/24 01:32:11;;;;;;;14.80;9.60;;;;;;;26.88;66.91;98242.25;4424357;32;20462;-79
2023/08/24 01:34:39;;;;;;;15.60;9.18;;;;;;;26.57;68.80;98242.84;4425575;32;20445;-79
2023/08/24 01:37:06;;;;;;;18.62;9.55;;;;;;;26.55;69.60;98246.66;4425593;32;20130;-79
2023/08/24 01:39:47;;;;;;;16.33;9.68;;;;;;;26.25;71.13;98231.16;4411328;32;20164;-79
2023/08/24 01:42:20;;;;;;;17.90;9.68;;;;;;;26.56;70.38;98240.37;4412132;32;20177;-79
2023/08/24 01:44:51;;;;;;;19.52;10.38;;;;;;;26.44;70.94;98238.03;4425544;32;20122;-79
2023/08/24 01:47:18;;;;;;;16.52;10.00;;;;;;;26.40;71.45;98242.00;4425153;32;20157;-79
2023/08/24 01:49:45;;;;;;;19.23;10.45;;;;;;;26.56;71.00;98240.37;4411895;32;20081;-79
2023/08/24 01:52:12;;;;;;;18.52;9.52;;;;;;;26.01;74.46;98233.72;4425484;32;20073;-79
2023/08/24 01:54:39;;;;;;;14.87;10.48;;;;;;;25.95;75.02;98243.13;4411401;32;20170;-79
2023/08/24 01:57:06;;;;;;;18.75;10.60;;;;;;;26.65;72.07;98234.13;4411698;32;20102;-79
2023/08/24 01:59:33;;;;;;;15.98;10.30;;;;;;;26.48;72.42;98234.09;4425516;32;20141;-79
2023/08/24 02:02:00;;;;;;;16.60;10.70;;;;;;;26.37;73.35;98230.91;4411375;32;20148;-79
2023/08/24 02:04:27;;;;;;;18.92;9.98;;;;;;;26.74;72.01;98228.69;4411654;32;20106;-79
2023/08/24 02:06:54;;;;;;;17.42;9.77;;;;;;;27.13;69.69;98237.84;4425023;32;20116;-79
2023/08/24 02:09:21;;;;;;;16.45;9.95;;;;;;;26.97;70.25;98236.81;4425509;32;20085;-79
2023/08/24 02:11:48;;;;;;;16.08;9.70;;;;;;;27.05;69.38;98236.84;4425430;32;20077;-79
2023/08/24 02:14:15;;;;;;;14.57;9.38;;;;;;;26.92;69.95;98233.00;4425029;32;20787;-79
2023/08/24 02:16:42;;;;;;;15.95;10.32;;;;;;;26.91;69.99;98224.25;4425356;32;20149;-79
2023/08/24 02:19:10;;;;;;;17.48;9.95;;;;;;;27.04;69.88;98235.19;4425202;32;20133;-79
2023/08/24 02:21:36;;;;;;;17.25;9.77;;;;;;;27.32;68.45;98235.66;4425106;32;20086;-79
2023/08/24 02:24:05;;;;;;;16.83;9.20;;;;;;;27.30;68.45;98231.53;4425370;32;20141;-79
2023/08/24 02:26:31;;;;;;;17.08;10.27;;;;;;;27.30;67.81;98228.88;4425224;32;20157;-79
2023/08/24 02:28:59;;;;;;;15.48;9.93;;;;;;;27.57;66.58;98225.06;4424974;32;20507;-79
2023/08/24 02:31:26;;;;;;;14.27;9.70;;;;;;;27.38;68.01;98219.13;4425294;32;20103;-79
2023/08/24 02:33:53;;;;;;;15.52;9.88;;;;;;;27.48;67.50;98218.94;4425225;32;20149;-79
2023/08/24 02:36:20;;;;;;;16.52;9.95;;;;;;;27.77;66.69;98225.53;4424867;32;20170;-79
2023/08/24 02:38:47;;;;;;;16.17;9.82;;;;;;;27.46;68.00;98222.75;4425271;32;20168;-79
2023/08/24 02:41:14;;;;;;;14.35;9.55;;;;;;;28.39;64.10;98218.53;4424952;32;20107;-79
2023/08/24 02:43:41;;;;;;;14.27;9.10;;;;;;;28.19;65.29;98218.09;4424364;32;20140;-79
2023/08/24 02:46:11;;;;;;;14.13;9.00;;;;;;;28.30;64.82;98216.09;4425057;32;20495;-79
2023/08/24 02:48:38;;;;;;;16.83;9.80;;;;;;;28.28;65.31;98216.25;4425002;32;20104;-79
2023/08/24 02:51:05;;;;;;;14.85;9.05;;;;;;;28.51;64.47;98221.62;4424786;32;20098;-79
2023/08/24 02:53:33;;;;;;;15.20;9.43;;;;;;;28.68;63.29;98217.00;4425029;32;20106;-79
2023/08/24 02:56:00;;;;;;;13.38;8.93;;;;;;;28.83;62.86;98220.56;4411239;32;20168;-79
2023/08/24 02:58:28;;;;;;;15.80;9.20;;;;;;;29.38;59.88;98220.31;4410933;32;20089;-79
2023/08/24 03:00:55;;;;;;;14.82;9.25;;;;;;;29.18;60.80;98218.34;4424937;32;20089;-79
2023/08/24 03:03:23;;;;;;;16.23;8.98;;;;;;;29.21;60.66;98224.09;4424660;32;20659;-79
2023/08/24 03:05:57;;;;;;;15.10;8.95;;;;;;;29.02;61.14;98221.94;4424822;32;20102;-79
2023/08/24 03:08:24;;;;;;;17.37;9.25;;;;;;;29.90;57.75;98216.81;4424882;32;20104;-79
2023/08/24 03:10:51;;;;;;;14.48;8.95;;;;;;;28.95;60.68;98211.22;4424576;32;20120;-79
2023/08/24 03:13:18;;;;;;;16.55;9.20;;;;;;;29.34;59.45;98203.06;4424785;32;20433;-79
2023/08/24 03:15:45;;;;;;;16.92;9.65;;;;;;;29.46;58.83;98202.63;4424779;32;20094;-79
2023/08/24 03:18:13;;;;;;;15.02;8.75;;;;;;;29.56;58.75;98200.53;4424288;32;20101;-79
2023/08/24 03:20:40;;;;;;;14.73;8.63;;;;;;;29.32;59.35;98207.72;4424776;32;20124;-79
2023/08/24 03:23:07;;;;;;;13.25;8.55;;;;;;;29.47;58.75;98201.63;4410869;32;20161;-79
2023/08/24 03:25:39;;;;;;;14.40;8.85;;;;;;;29.69;57.99;98205.25;4424228;32;20157;-79
2023/08/24 03:28:07;;;;;;;18.50;8.98;;;;;;;29.51;58.41;98209.06;4424490;32;20090;-79
2023/08/24 03:30:36;;;;;;;13.77;9.15;;;;;;;30.04;56.42;98198.34;4424557;32;20074;-79
2023/08/24 03:33:04;;;;;;;15.38;9.00;;;;;;;29.98;56.16;98218.53;4410637;32;20116;-79
2023/08/24 03:35:32;;;;;;;14.60;9.13;;;;;;;29.47;57.46;98221.06;4424536;32;20546;-79
2023/08/24 03:37:59;;;;;;;17.30;9.57;;;;;;;28.79;59.80;98205.97;4410666;32;20425;-79
2023/08/24 03:40:26;;;;;;;15.63;10.02;;;;;;;28.46;61.23;98208.84;4423848;32;20073;-79
2023/08/24 03:42:53;;;;;;;17.92;9.68;;;;;;;28.36;61.61;98210.91;4410594;32;20132;-79
2023/08/24 03:45:20;;;;;;;17.17;9.02;;;;;;;29.00;59.66;98214.16;4423938;32;20238;-79
2023/08/24 03:47:48;;;;;;;13.95;9.48;;;;;;;29.48;57.50;98209.44;4424290;32;20104;-79
2023/08/24 03:50:16;;;;;;;15.73;9.30;;;;;;;28.88;59.37;98212.91;4410594;32;20073;-79
2023/08/24 03:52:43;;;;;;;18.58;9.45;;;;;;;28.57;60.53;98212.09;4423981;32;20513;-79
2023/08/24 03:55:10;;;;;;;15.52;9.98;;;;;;;28.83;59.88;98215.25;4425612;32;20132;-79
2023/08/24 03:57:37;;;;;;;18.67;9.85;;;;;;;28.55;60.71;98214.94;4426232;32;20105;-79
2023/08/24 04:00:07;;;;;;;20.15;9.80;;;;;;;28.73;60.42;98214.66;4425978;32;20086;-79
2023/08/24 04:02:34;;;;;;;17.83;10.57;;;;;;;28.52;61.14;98218.78;4426215;32;20569;-79
2023/08/24 04:05:01;;;;;;;17.05;10.10;;;;;;;27.24;66.98;98227.75;4426373;32;20102;-79
2023/08/24 04:07:28;;;;;;;15.98;10.02;;;;;;;28.18;62.93;98223.56;4425712;32;20128;-79
2023/08/24 04:09:55;;;;;;;19.48;10.27;;;;;;;28.41;61.80;98226.31;4426310;32;20120;-79
2023/08/24 04:12:22;;;;;;;16.55;9.50;;;;;;;28.43;61.29;98225.13;4426113;32;20098;-79
2023/08/24 04:14:49;;;;;;;16.42;9.57;;;;;;;28.33;61.60;98224.53;4425896;32;20152;-79
2023/08/24 04:17:16;;;;;;;14.80;9.77;;;;;;;28.55;60.92;98214.94;4426172;32;20160;-79
2023/08/24 04:19:43;;;;;;;14.68;9.55;;;;;;;28.64;61.05;98218.37;4426223;32;20109;-79
2023/08/24 04:22:09;;;;;;;17.15;10.07;;;;;;;29.13;59.17;98226.81;4425706;32;20153;-79
2023/08/24 04:24:36;;;;;;;19.52;10.32;;;;;;;29.23;57.48;98223.91;4426092;32;20433;-79
2023/08/24 04:27:03;;;;;;;16.27;9.73;;;;;;;28.99;58.44;98223.13;4425896;32;20455;-79
2023/08/24 04:29:30;;;;;;;15.00;9.10;;;;;;;29.55;56.73;98226.31;4425720;32;20483;-79
2023/08/24 04:31:57;;;;;;;16.92;10.15;;;;;;;29.19;57.76;98235.94;4426004;32;20110;-79
2023/08/24 04:34:24;;;;;;;16.33;9.60;;;;;;;29.69;56.46;98240.63;4411978;32;20136;-79
2023/08/24 04:36:51;;;;;;;13.75;9.65;;;;;;;29.51;56.85;98238.31;4425799;32;20099;-79
2023/08/24 04:39:21;;;;;;;18.37;9.50;;;;;;;29.65;56.47;98240.16;4425706;32;20141;-79
2023/08/24 04:41:48;;;;;;;14.13;8.80;;;;;;;29.49;56.88;98244.84;4425674;32;20086;-79
2023/08/24 04:44:15;;;;;;;16.00;8.77;;;;;;;29.86;55.44;98249.25;4425969;32;20158;-79
2023/08/24 04:46:42;;;;;;;15.32;8.55;;;;;;;30.14;54.37;98250.28;4425836;32;20152;-79
2023/08/24 04:49:09;;;;;;;13.30;8.52;;;;;;;30.18;54.19;98245.41;4425523;32;20085;-79
2023/08/24 04:51:36;;;;;;;13.40;7.90;;;;;;;29.66;55.87;98246.31;4425930;32;20541;-79
2023/08/24 04:54:03;;;;;;;13.73;8.38;;;;;;;29.48;56.43;98244.00;4425924;32;20496;-79
2023/08/24 04:56:30;;;;;;;12.48;8.55;;;;;;;29.56;56.34;98241.28;4425488;32;20124;-79
2023/08/24 04:58:57;;;;;;;13.43;8.52;;;;;;;29.87;55.21;98235.75;4425810;32;20156;-79
2023/08/24 05:01:27;;;;;;;15.07;8.00;;;;;;;29.86;55.42;98249.25;4411962;32;20165;-79
2023/08/24 05:03:54;;;;;;;13.85;7.78;;;;;;;30.14;54.88;98252.12;4425369;32;20447;-79
2023/08/24 05:06:21;;;;;;;13.18;8.40;;;;;;;29.87;55.52;98251.72;4425565;32;20594;-79
2023/08/24 05:08:48;;;;;;;14.27;8.10;;;;;;;30.13;54.56;98259.28;4425646;32;20133;-79
2023/08/24 05:11:21;;;;;;;13.93;8.50;;;;;;;30.21;54.84;98261.88;4425520;32;20162;-80
2023/08/24 05:13:48;;;;;;;15.48;7.60;;;;;;;30.30;55.01;98259.91;4425920;32;20158;-81
2023/08/24 05:16:15;;;;;;;14.05;7.75;;;;;;;30.85;53.29;98268.38;4426662;32;20147;-81
2023/08/24 05:18:42;;;;;;;14.48;7.43;;;;;;;31.51;51.45;98266.34;4436738;32;20076;-81
2023/08/24 05:21:09;;;;;;;12.93;7.25;;;;;;;31.68;50.80;98268.50;4440237;32;20063;-81
2023/08/24 05:23:36;;;;;;;13.35;7.50;;;;;;;32.41;49.30;98276.97;4439565;32;20098;-81
2023/08/24 05:26:03;;;;;;;12.40;7.25;;;;;;;33.22;47.61;98263.66;4438528;32;20829;-81
2023/08/24 05:28:32;;;;;;;10.95;6.90;;;;;;;33.91;45.82;98268.56;4437307;32;20076;-81
2023/08/24 05:30:59;;;;;;;10.93;6.55;;;;;;;34.45;45.00;98282.66;4435264;32;20066;-81
2023/08/24 05:33:27;;;;;;;12.55;6.70;;;;;;;35.11;43.44;98276.97;4434607;32;20062;-81
2023/08/24 05:35:54;;;;;;;10.65;6.47;;;;;;;35.93;41.76;98285.81;4433775;32;20147;-81
2023/08/24 05:38:21;;;;;;;11.25;6.70;;;;;;;36.38;40.47;98282.88;4433085;32;20726;-81
2023/08/24 05:40:48;;;;;;;12.52;6.50;;;;;;;36.99;39.25;98280.00;4432409;32;20094;-81
2023/08/24 05:43:15;;;;;;;11.20;6.62;;;;;;;37.82;37.63;98286.37;4432181;32;20146;-81
2023/08/24 05:45:44;;;;;;;9.82;6.35;;;;;;;37.81;37.11;98290.94;4432439;32;20092;-81
2023/08/24 05:48:12;;;;;;;13.57;6.32;;;;;;;37.67;37.37;98288.69;4433605;32;20080;-81
2023/08/24 05:50:46;;;;;;;11.45;6.53;;;;;;;37.25;37.93;98283.34;4432316;32;20429;-81
2023/08/24 05:53:13;;;;;;;12.07;6.55;;;;;;;36.94;39.29;98292.50;4431333;32;20082;-81
2023/08/24 05:55:40;;;;;;;11.75;6.45;;;;;;;37.00;39.07;98284.31;4425494;32;20101;-81
2023/08/24 05:58:08;;;;;;;10.35;6.43;;;;;;;36.94;39.04;98279.88;4425497;32;20081;-82
2023/08/24 06:00:35;;;;;;;10.63;5.97;;;;;;;36.87;39.79;98278.31;4425350;32;20101;-82
2023/08/24 06:03:02;;;;;;;11.07;6.25;;;;;;;36.97;39.94;98286.66;4425600;32;20086;-82
2023/08/24 06:05:31;;;;;;;13.95;6.47;;;;;;;36.99;39.58;98279.19;4427736;32;20101;-79
2023/08/24 06:07:58;;;;;;;10.50;6.15;;;;;;;37.23;38.49;98282.78;4438458;32;20082;-80
2023/08/24 06:10:26;;;;;;;11.93;6.62;;;;;;;36.81;38.63;98273.84;4438946;32;20062;-80
2023/08/24 06:12:54;;;;;;;11.63;6.43;;;;;;;37.05;39.05;98279.09;4437130;32;20104;-80
2023/08/24 06:15:26;;;;;;;10.57;6.30;;;;;;;37.29;37.55;98279.16;4438007;32;20062;-81
2023/08/24 06:17:53;;;;;;;11.73;6.85;;;;;;;37.47;37.04;98281.78;4438570;32;20075;-81
2023/08/24 06:20:20;;;;;;;10.93;6.00;;;;;;;37.24;36.96;98279.03;4437351;32;20120;-82
2023/08/24 06:22:50;;;;;;;11.65;6.55;;;;;;;37.46;36.84;98276.63;4434973;32;20061;-81
2023/08/24 06:25:19;;;;;;;10.05;5.70;;;;;;;37.45;36.06;98278.50;4436790;32;20072;-81
2023/08/24 06:27:46;;;;;;;11.38;6.12;;;;;;;37.81;34.49;98282.06;4432199;32;20100;-81
2023/08/24 06:30:13;;;;;;;10.30;5.78;;;;;;;38.13;34.44;98283.31;4430430;32;20066;-81
2023/08/24 06:32:39;;;;;;;11.27;5.97;;;;;;;37.53;35.41;98282.69;4431377;32;20098;-81
2023/08/24 06:35:07;;;;;;;11.68;5.93;;;;;;;37.45;35.60;98281.19;4435429;32;20073;-82
2023/08/24 06:37:34;;;;;;;10.73;5.87;;;;;;;38.71;33.76;98287.78;4433608;32;20061;-82
2023/08/24 06:40:01;;;;;;;10.80;5.30;;;;;;;38.85;33.06;98282.91;4437059;32;20070;-82
2023/08/24 06:42:28;;;;;;;11.45;5.70;;;;;;;39.15;30.91;98284.53;4436091;32;20082;-83
2023/08/24 06:44:55;;;;;;;10.13;5.80;;;;;;;39.01;31.19;98282.09;4418319;32;20112;-84
2023/08/24 06:47:23;;;;;;;10.15;5.43;;;;;;;38.19;32.86;98286.94;4434795;32;20114;-83
2023/08/24 06:49:50;;;;;;;11.23;5.80;;;;;;;36.79;34.79;98282.97;4437997;32;20437;-82
2023/08/24 06:52:17;;;;;;;9.88;5.47;;;;;;;37.37;34.15;98284.22;4435343;32;20077;-83
2023/08/24 06:54:44;;;;;;;10.68;4.57;;;;;;;36.60;33.39;98283.22;4427607;32;20420;-82
2023/08/24 06:57:11;;;;;;;9.57;5.32;;;;;;;36.42;31.54;98282.19;4427680;32;20157;-83
2023/08/24 06:59:38;;;;;;;9.55;5.07;;;;;;;35.44;33.34;98284.81;4427982;32;20119;-83
2023/08/24 07:02:05;;;;;;;13.27;5.37;;;;;;;36.02;32.57;98292.53;4426933;32;20111;-83
2023/08/24 07:04:34;;;;;;;9.50;5.55;;;;;;;35.69;34.32;98289.34;4426022;32;20099;-83
2023/08/24 07:07:02;;;;;;;10.55;5.28;;;;;;;35.99;33.10;98287.63;4426035;32;20082;-83
2023/08/24 07:09:29;;;;;;;9.10;4.87;;;;;;;35.65;32.30;98287.09;4425932;32;20158;-84
2023/08/24 07:11:56;;;;;;;10.85;4.97;;;;;;;34.38;35.36;98284.56;4433673;32;20076;-84
2023/08/24 07:14:23;;;;;;;10.35;5.32;;;;;;;34.76;35.13;98282.72;4438523;32;20080;-85
2023/08/24 07:16:52;;;;;;;10.40;5.18;;;;;;;34.35;36.22;98282.25;4437505;32;20110;-85
2023/08/24 07:19:19;;;;;;;14.00;5.47;;;;;;;34.12;36.67;98282.75;4437402;32;20122;-84
2023/08/24 07:21:46;;;;;;;11.65;5.75;;;;;;;33.29;37.06;98277.03;4435836;32;20097;-84
2023/08/24 07:24:13;;;;;;;10.63;5.62;;;;;;;33.91;36.73;98273.13;4419956;32;20439;-82
2023/08/24 07:26:42;;;;;;;10.15;5.40;;;;;;;33.78;36.50;98273.94;4434457;32;20408;-83
2023/08/24 07:29:09;;;;;;;9.65;5.22;;;;;;;34.81;34.80;98271.37;4432542;32;20103;-82
2023/08/24 07:31:36;;;;;;;11.75;5.37;;;;;;;34.32;35.15;98280.00;4439676;32;20110;-83
2023/08/24 07:34:05;;;;;;;12.27;5.53;;;;;;;34.20;34.66;98280.66;4441227;32;20382;-81
2023/08/24 07:36:32;;;;;;;11.32;5.30;;;;;;;33.84;35.05;98277.66;4441179;32;20105;-81
2023/08/24 07:38:59;;;;;;;11.40;4.72;;;;;;;34.34;35.58;98284.09;4440561;32;20110;-82
2023/08/24 07:41:26;;;;;;;8.70;4.60;;;;;;;34.36;32.27;98286.59;4441067;32;20106;-83
2023/08/24 07:43:53;;;;;;;8.48;4.50;;;;;;;33.65;33.40;98284.66;4440042;32;20058;-83
2023/08/24 07:46:20;;;;;;;9.30;5.00;;;;;;;33.72;31.88;98284.66;4438275;32;20093;-84
2023/08/24 07:48:47;;;;;;;9.70;4.70;;;;;;;33.96;32.06;98284.03;4431592;32;20555;-84
2023/08/24 07:51:14;;;;;;;8.75;4.32;;;;;;;33.85;30.66;98285.47;4427762;32;20098;-85
2023/08/24 07:53:41;;;;;;;8.65;4.70;;;;;;;33.51;29.73;98283.84;4430862;32;20095;-85
2023/08/24 07:56:08;;;;;;;8.98;4.80;;;;;;;33.44;31.70;98280.34;4416371;32;20105;-84
2023/08/24 07:58:35;;;;;;;10.65;5.00;;;;;;;33.20;32.34;98287.09;4429383;32;20161;-85
2023/08/24 08:01:02;;;;;;;9.85;4.80;;;;;;;33.22;33.41;98289.56;4429936;32;20461;-85
2023/08/24 08:03:30;;;;;;;10.70;5.12;;;;;;;33.77;31.83;98292.88;4430176;32;20160;-84
2023/08/24 08:05:58;;;;;;;9.50;4.87;;;;;;;34.36;30.96;98297.31;4429499;32;20085;-85
2023/08/24 08:08:25;;;;;;;10.48;4.57;;;;;;;34.29;31.09;98291.16;4429455;32;20109;-86
2023/08/24 08:11:02;;;;;;;9.65;4.28;;;;;;;35.45;28.56;98291.81;4431309;32;20727;-85
2023/08/24 08:13:29;;;;;;;8.95;4.68;;;;;;;34.33;28.72;98297.72;4431328;32;20073;-85
2023/08/24 08:16:07;;;;;;;8.73;4.40;;;;;;;33.18;30.30;98291.84;4434744;32;20100;-85
2023/08/24 08:18:35;;;;;;;8.75;4.43;;;;;;;33.53;31.31;98289.00;4433113;32;20074;-85
2023/08/24 08:21:11;;;;;;;9.88;4.70;;;;;;;35.38;29.93;98301.75;4429805;32;20063;-85
2023/08/24 08:23:38;;;;;;;10.35;4.60;;;;;;;34.40;30.49;98295.88;4428643;32;20128;-85
2023/08/24 08:26:07;;;;;;;11.25;4.82;;;;;;;35.89;30.61;98304.25;4434273;32;20093;-84
2023/08/24 08:28:34;;;;;;;9.80;5.10;;;;;;;35.40;31.27;98297.00;4436420;32;20073;-85
2023/08/24 08:31:02;;;;;;;9.02;5.15;;;;;;;35.65;29.90;98305.88;4434839;32;20072;-86
2023/08/24 08:33:30;;;;;;;11.98;5.15;;;;;;;33.87;33.06;98294.13;4434430;32;20059;-85
2023/08/24 08:35:56;;;;;;;9.40;5.07;;;;;;;34.93;30.86;98307.19;4435458;32;20147;-85
2023/08/24 08:38:25;;;;;;;11.45;5.20;;;;;;;35.73;29.41;98307.47;4434507;32;20120;-86
2023/08/24 08:41:03;;;;;;;9.32;4.80;;;;;;;37.48;27.32;98306.81;4437285;32;20686;-87
2023/08/24 08:43:30;;;;;;;9.60;4.90;;;;;;;35.29;29.81;98309.22;4439113;32;20092;-86
2023/08/24 08:45:58;;;;;;;8.77;4.62;;;;;;;35.06;31.03;98301.75;4425863;32;20101;-86
2023/08/24 08:48:25;;;;;;;11.48;4.97;;;;;;;34.12;33.38;98306.84;4436013;32;20412;-86
2023/08/24 08:50:59;;;;;;;10.65;4.82;;;;;;;35.95;30.40;98307.09;4419760;32;20131;-86
2023/08/24 08:53:26;;;;;;;9.77;5.32;;;;;;;38.02;28.42;98308.37;4437013;32;20156;-87
2023/08/24 08:55:54;;;;;;;10.70;5.10;;;;;;;38.98;26.68;98308.75;4434902;32;20086;-86
2023/08/24 08:58:22;;;;;;;8.57;4.57;;;;;;;38.73;26.24;98306.41;4432745;32;20527;-86
2023/08/24 09:00:49;;;;;;;9.43;4.62;;;;;;;37.62;26.91;98309.03;4428077;32;20115;-86
2023/08/24 09:03:19;;;;;;;13.73;4.87;;;;;;;38.73;25.86;98299.13;4431651;32;20152;-87
2023/08/24 09:05:49;;;;;;;10.38;4.60;;;;;;;37.78;26.35;98296.00;4427731;32;20106;-85
2023/08/24 09:08:20;;;;;;;7.90;4.37;;;;;;;37.62;26.28;98292.91;4427278;32;20435;-87
2023/08/24 09:10:47;;;;;;;13.57;5.00;;;;;;;38.30;25.37;98299.59;4429717;32;20148;-86
2023/08/24 09:13:14;;;;;;;8.15;4.60;;;;;;;37.47;29.13;98297.94;4427901;32;20086;-86
2023/08/24 09:15:41;;;;;;;10.90;4.70;;;;;;;38.15;25.95;98293.84;4425458;32;20138;-86
2023/08/24 09:18:08;;;;;;;8.68;4.60;;;;;;;37.42;26.96;98302.34;4426095;32;20119;-86
2023/08/24 09:20:35;;;;;;;10.05;4.80;;;;;;;37.59;26.57;98293.37;4412472;32;20101;-86
2023/08/24 09:23:03;;;;;;;8.57;4.50;;;;;;;39.23;25.41;98305.72;4412521;32;20108;-84
2023/08/24 09:25:30;;;;;;;8.73;4.43;;;;;;;39.60;24.62;98298.00;4425627;32;20082;-84
2023/08/24 09:27:58;;;;;;;12.93;4.75;;;;;;;38.78;24.72;98296.53;4411785;32;20437;-84
2023/08/24 09:30:32;;;;;;;12.18;4.68;;;;;;;37.45;26.08;98285.75;4425301;32;20123;-84
2023/08/24 09:33:12;;;;;;;8.38;4.53;;;;;;;38.52;25.60;98291.69;4411727;32;20444;-85
2023/08/24 09:35:39;;;;;;;10.32;4.65;;;;;;;37.09;26.93;98284.81;4411698;32;20160;-86
2023/08/24 09:38:19;;;;;;;9.55;5.18;;;;;;;36.47;27.36;98285.03;4425219;32;20159;-87
2023/08/24 09:40:48;;;;;;;8.20;4.47;;;;;;;38.38;24.70;98291.13;4425277;32;20161;-87
2023/08/24 09:43:15;;;;;;;11.18;4.70;;;;;;;38.94;24.50;98284.16;4411316;32;20102;-86
2023/08/24 09:45:56;;;;;;;9.57;4.70;;;;;;;38.43;25.82;98285.84;4425369;32;20074;-86
2023/08/24 09:48:24;;;;;;;8.80;4.80;;;;;;;36.95;27.41;98283.41;4425399;32;20121;-85
2023/08/24 09:50:56;;;;;;;9.45;4.72;;;;;;;36.50;27.40;98286.47;4411979;32;20151;-85
2023/08/24 09:53:24;;;;;;;9.43;4.37;;;;;;;37.90;25.52;98278.78;4424613;32;20090;-86
2023/08/24 09:56:01;;;;;;;9.48;4.55;;;;;;;38.44;25.16;98270.50;4425254;32;20112;-85
2023/08/24 09:58:29;;;;;;;8.50;4.62;;;;;;;38.64;24.92;98278.97;4425073;32;20169;-87
2023/08/24 10:00:56;;;;;;;10.57;5.00;;;;;;;38.36;25.75;98271.69;4411691;32;20346;-87
2023/08/24 10:03:27;;;;;;;9.95;4.35;;;;;;;38.14;25.71;98278.72;4425352;32;20141;-86
2023/08/24 10:06:00;;;;;;;10.77;4.78;;;;;;;38.47;24.83;98267.31;4425056;32;20147;-86
2023/08/24 10:08:41;;;;;;;9.82;4.62;;;;;;;37.61;27.39;98268.91;4425283;32;20112;-86
2023/08/24 10:11:10;;;;;;;9.63;4.60;;;;;;;36.44;28.27;98269.34;4425161;32;20115;-85
2023/08/24 10:13:45;;;;;;;10.15;5.00;;;;;;;36.95;27.19;98264.56;4400367;32;20143;-86
2023/08/24 10:16:13;;;;;;;10.35;4.70;;;;;;;35.28;29.01;98261.97;4425304;32;20121;-85
2023/08/24 10:18:41;;;;;;;9.13;4.62;;;;;;;36.73;27.41;98261.53;4411299;32;20114;-85
2023/08/24 10:21:08;;;;;;;11.50;5.10;;;;;;;37.49;26.87;98268.09;4411682;32;20168;-85
2023/08/24 10:23:36;;;;;;;10.00;4.70;;;;;;;38.72;24.73;98261.63;4425198;32;20077;-85
2023/08/24 10:26:03;;;;;;;10.48;5.20;;;;;;;39.96;23.95;98263.37;4424832;32;20555;-83
2023/08/24 10:28:31;;;;;;;9.20;4.47;;;;;;;40.03;23.46;98264.06;4425132;32;20164;-83
2023/08/24 10:30:59;;;;;;;8.35;4.70;;;;;;;39.95;23.80;98267.16;4425153;32;20119;-84
2023/08/24 10:33:27;;;;;;;10.38;4.85;;;;;;;38.40;25.93;98258.56;4411193;32;20108;-84
2023/08/24 10:35:54;;;;;;;8.32;4.95;;;;;;;39.51;23.71;98254.34;4425198;32;20081;-84
2023/08/24 10:38:29;;;;;;;8.60;4.97;;;;;;;40.00;23.50;98257.28;4425139;32;20093;-84
2023/08/24 10:41:06;;;;;;;10.00;4.35;;;;;;;40.37;23.64;98253.94;4424534;32;20131;-84
2023/08/24 10:43:37;;;;;;;9.20;4.85;;;;;;;38.25;25.81;98247.47;4399268;32;20089;-84
2023/08/24 10:46:04;;;;;;;9.73;4.55;;;;;;;38.03;26.40;98248.06;4425070;32;20108;-84
2023/08/24 10:48:57;;;;;;;12.18;4.97;;;;;;;37.71;25.96;98244.09;4424687;32;20105;-84
2023/08/24 10:51:28;;;;;;;9.55;4.70;;;;;;;38.53;25.42;98247.50;4411401;32;20123;-84
2023/08/24 10:54:00;;;;;;;10.38;5.00;;;;;;;39.33;24.93;98241.91;4424803;32;20716;-84
2023/08/24 10:56:39;;;;;;;8.90;4.68;;;;;;;38.75;25.04;98239.56;4398666;32;20165;-84
2023/08/24 10:59:17;;;;;;;9.15;5.00;;;;;;;39.45;24.44;98238.31;4424989;32;20086;-84
2023/08/24 11:01:54;;;;;;;9.60;4.95;;;;;;;38.95;25.26;98239.94;4424681;32;20137;-84
2023/08/24 11:04:21;;;;;;;10.18;5.00;;;;;;;37.47;26.93;98230.66;4424676;32;20508;-84
2023/08/24 11:06:59;;;;;;;9.98;4.70;;;;;;;37.76;26.26;98231.59;4424725;32;20079;-83
2023/08/24 11:09:46;;;;;;;11.82;5.12;;;;;;;38.24;27.32;98230.47;4424500;32;20093;-83
2023/08/24 11:12:13;;;;;;;9.43;4.87;;;;;;;39.18;26.10;98230.91;4424932;32;20411;-83
2023/08/24 11:14:58;;;;;;;9.00;4.80;;;;;;;37.02;28.29;98223.09;4424516;32;20081;-83
2023/08/24 11:17:31;;;;;;;7.37;3.78;;;;;;;37.17;27.84;98224.50;4407076;32;149909;-83
2023/08/24 11:20:00;;;;;;;8.82;4.85;;;;;;;34.99;30.32;98209.84;4424715;32;20151;-82
2023/08/24 11:22:31;;;;;;;10.38;4.62;;;;;;;35.01;31.21;98209.59;4399432;32;20101;-82
2023/08/24 11:24:59;;;;;;;9.63;5.15;;;;;;;37.04;28.20;98212.09;4425887;32;20408;-82
2023/08/24 11:27:26;;;;;;;10.50;5.45;;;;;;;36.28;29.77;98210.84;4410776;32;20168;-82
2023/08/24 11:30:01;;;;;;;15.25;5.50;;;;;;;34.94;31.43;98209.66;4424209;32;20094;-82
2023/08/24 11:32:28;;;;;;;10.27;4.97;;;;;;;34.63;31.30;98209.63;4424449;32;20108;-82